sensor_id;sensor_type;location;lat;lon;timestamp;P1;durP1;ratioP1;P2;durP2;ratioP2
57663;SDS011;43493;53.098;6.064;2023-01-26T00:00:53;55.70;;;26.10;;
57663;SDS011;43493;53.098;6.064;2023-01-26T00:03:20;52.80;;;24.92;;
57663;SDS011;43493;53.098;6.064;2023-01-26T00:05:46;58.13;;;25.17;;
57663;SDS011;43493;53.098;6.064;2023-01-26T00:08:12;54.47;;;25.63;;
57663;SDS011;43493;53.098;6.064;2023-01-26T00:10:38;52.20;;;24.13;;
57663;SDS011;43493;53.098;6.064;2023-01-26T00:13:06;57.42;;;24.92;;
57663;SDS011;43493;53.098;6.064;2023-01-26T00:15:33;61.58;;;26.48;;
57663;SDS011;43493;53.098;6.064;2023-01-26T00:17:59;65.03;;;26.45;;
57663;SDS011;43493;53.098;6.064;2023-01-26T00:20:26;53.58;;;25.15;;
57663;SDS011;43493;53.098;6.064;2023-01-26T00:22:52;62.20;;;25.50;;
57663;SDS011;43493;53.098;6.064;2023-01-26T00:25:18;56.77;;;24.13;;
57663;SDS011;43493;53.098;6.064;2023-01-26T00:27:44;61.97;;;25.70;;
57663;SDS011;43493;53.098;6.064;2023-01-26T00:30:10;67.23;;;26.40;;
57663;SDS011;43493;53.098;6.064;2023-01-26T00:32:36;55.33;;;25.95;;
57663;SDS011;43493;53.098;6.064;2023-01-26T00:35:03;65.70;;;25.50;;
57663;SDS011;43493;53.098;6.064;2023-01-26T00:37:29;58.05;;;24.63;;
57663;SDS011;43493;53.098;6.064;2023-01-26T00:39:55;55.13;;;25.63;;
57663;SDS011;43493;53.098;6.064;2023-01-26T00:42:21;63.57;;;26.33;;
57663;SDS011;43493;53.098;6.064;2023-01-26T00:44:48;61.53;;;25.27;;
57663;SDS011;43493;53.098;6.064;2023-01-26T00:47:14;56.35;;;23.85;;
57663;SDS011;43493;53.098;6.064;2023-01-26T00:49:41;54.22;;;23.83;;
57663;SDS011;43493;53.098;6.064;2023-01-26T00:52:07;56.60;;;26.05;;
57663;SDS011;43493;53.098;6.064;2023-01-26T00:54:34;53.53;;;23.05;;
57663;SDS011;43493;53.098;6.064;2023-01-26T00:57:00;64.83;;;26.10;;
57663;SDS011;43493;53.098;6.064;2023-01-26T00:59:26;65.30;;;25.98;;
57663;SDS011;43493;53.098;6.064;2023-01-26T01:01:52;66.85;;;25.55;;
57663;SDS011;43493;53.098;6.064;2023-01-26T01:04:18;54.88;;;24.70;;
57663;SDS011;43493;53.098;6.064;2023-01-26T01:06:44;51.83;;;22.67;;
57663;SDS011;43493;53.098;6.064;2023-01-26T01:09:10;59.73;;;24.70;;
57663;SDS011;43493;53.098;6.064;2023-01-26T01:11:36;60.47;;;25.13;;
57663;SDS011;43493;53.098;6.064;2023-01-26T01:14:02;54.50;;;24.07;;
57663;SDS011;43493;53.098;6.064;2023-01-26T01:16:27;55.27;;;24.10;;
57663;SDS011;43493;53.098;6.064;2023-01-26T01:18:54;57.55;;;24.45;;
57663;SDS011;43493;53.098;6.064;2023-01-26T01:21:20;54.55;;;24.60;;
57663;SDS011;43493;53.098;6.064;2023-01-26T01:23:47;57.28;;;24.25;;
57663;SDS011;43493;53.098;6.064;2023-01-26T01:26:13;47.70;;;23.37;;
57663;SDS011;43493;53.098;6.064;2023-01-26T01:28:40;59.22;;;24.63;;
57663;SDS011;43493;53.098;6.064;2023-01-26T01:31:08;60.97;;;25.70;;
57663;SDS011;43493;53.098;6.064;2023-01-26T01:33:36;49.90;;;23.30;;
57663;SDS011;43493;53.098;6.064;2023-01-26T01:36:06;56.85;;;23.85;;
57663;SDS011;43493;53.098;6.064;2023-01-26T01:38:34;53.60;;;23.90;;
57663;SDS011;43493;53.098;6.064;2023-01-26T01:41:00;52.40;;;24.03;;
57663;SDS011;43493;53.098;6.064;2023-01-26T01:43:26;51.90;;;22.83;;
57663;SDS011;43493;53.098;6.064;2023-01-26T01:45:53;51.35;;;23.58;;
57663;SDS011;43493;53.098;6.064;2023-01-26T01:50:53;55.55;;;25.02;;
57663;SDS011;43493;53.098;6.064;2023-01-26T01:53:23;51.90;;;22.90;;
57663;SDS011;43493;53.098;6.064;2023-01-26T01:55:55;54.88;;;23.13;;
57663;SDS011;43493;53.098;6.064;2023-01-26T01:58:23;50.63;;;23.88;;
57663;SDS011;43493;53.098;6.064;2023-01-26T02:00:49;51.63;;;22.83;;
57663;SDS011;43493;53.098;6.064;2023-01-26T02:03:15;55.77;;;23.57;;
57663;SDS011;43493;53.098;6.064;2023-01-26T02:06:05;57.15;;;22.92;;
57663;SDS011;43493;53.098;6.064;2023-01-26T02:08:52;52.80;;;23.88;;
57663;SDS011;43493;53.098;6.064;2023-01-26T02:11:24;59.15;;;23.83;;
57663;SDS011;43493;53.098;6.064;2023-01-26T02:14:10;64.30;;;23.52;;
57663;SDS011;43493;53.098;6.064;2023-01-26T02:16:38;53.03;;;23.55;;
57663;SDS011;43493;53.098;6.064;2023-01-26T02:19:06;55.47;;;24.07;;
57663;SDS011;43493;53.098;6.064;2023-01-26T02:21:42;59.15;;;23.80;;
57663;SDS011;43493;53.098;6.064;2023-01-26T02:24:28;65.40;;;24.17;;
57663;SDS011;43493;53.098;6.064;2023-01-26T02:26:58;67.03;;;26.02;;
57663;SDS011;43493;53.098;6.064;2023-01-26T02:29:24;54.33;;;23.57;;
57663;SDS011;43493;53.098;6.064;2023-01-26T02:31:50;53.73;;;23.83;;
57663;SDS011;43493;53.098;6.064;2023-01-26T02:34:17;53.97;;;23.83;;
57663;SDS011;43493;53.098;6.064;2023-01-26T02:36:43;55.27;;;24.13;;
57663;SDS011;43493;53.098;6.064;2023-01-26T02:39:33;61.63;;;24.80;;
57663;SDS011;43493;53.098;6.064;2023-01-26T02:42:08;55.25;;;23.80;;
57663;SDS011;43493;53.098;6.064;2023-01-26T02:44:52;53.80;;;23.08;;
57663;SDS011;43493;53.098;6.064;2023-01-26T02:47:18;60.07;;;24.20;;
57663;SDS011;43493;53.098;6.064;2023-01-26T02:49:44;67.30;;;24.53;;
57663;SDS011;43493;53.098;6.064;2023-01-26T02:52:16;49.55;;;23.10;;
57663;SDS011;43493;53.098;6.064;2023-01-26T02:54:43;46.58;;;20.88;;
57663;SDS011;43493;53.098;6.064;2023-01-26T02:57:35;55.90;;;23.08;;
57663;SDS011;43493;53.098;6.064;2023-01-26T03:00:05;57.80;;;23.80;;
57663;SDS011;43493;53.098;6.064;2023-01-26T03:02:32;59.80;;;23.88;;
57663;SDS011;43493;53.098;6.064;2023-01-26T03:04:58;54.40;;;23.33;;
57663;SDS011;43493;53.098;6.064;2023-01-26T03:07:24;49.63;;;22.73;;
57663;SDS011;43493;53.098;6.064;2023-01-26T03:09:50;46.93;;;22.23;;
57663;SDS011;43493;53.098;6.064;2023-01-26T03:12:15;55.80;;;23.30;;
57663;SDS011;43493;53.098;6.064;2023-01-26T03:14:41;49.97;;;22.23;;
57663;SDS011;43493;53.098;6.064;2023-01-26T03:17:07;63.23;;;23.00;;
57663;SDS011;43493;53.098;6.064;2023-01-26T03:19:33;52.57;;;22.77;;
57663;SDS011;43493;53.098;6.064;2023-01-26T03:22:17;49.88;;;21.90;;
57663;SDS011;43493;53.098;6.064;2023-01-26T03:25:01;51.15;;;22.00;;
57663;SDS011;43493;53.098;6.064;2023-01-26T03:27:46;51.25;;;23.13;;
57663;SDS011;43493;53.098;6.064;2023-01-26T03:30:14;49.75;;;21.92;;
57663;SDS011;43493;53.098;6.064;2023-01-26T03:32:41;49.40;;;22.88;;
57663;SDS011;43493;53.098;6.064;2023-01-26T03:35:07;56.80;;;23.53;;
57663;SDS011;43493;53.098;6.064;2023-01-26T03:37:40;55.15;;;23.30;;
57663;SDS011;43493;53.098;6.064;2023-01-26T03:40:09;51.20;;;23.35;;
57663;SDS011;43493;53.098;6.064;2023-01-26T03:42:55;51.50;;;23.23;;
57663;SDS011;43493;53.098;6.064;2023-01-26T03:45:39;51.70;;;23.17;;
57663;SDS011;43493;53.098;6.064;2023-01-26T03:48:24;55.03;;;22.65;;
57663;SDS011;43493;53.098;6.064;2023-01-26T03:51:08;48.10;;;20.95;;
57663;SDS011;43493;53.098;6.064;2023-01-26T03:53:52;50.33;;;24.10;;
57663;SDS011;43493;53.098;6.064;2023-01-26T03:56:37;46.28;;;22.45;;
57663;SDS011;43493;53.098;6.064;2023-01-26T03:59:03;51.73;;;24.47;;
57663;SDS011;43493;53.098;6.064;2023-01-26T04:01:43;49.17;;;22.80;;
57663;SDS011;43493;53.098;6.064;2023-01-26T04:04:29;50.28;;;22.98;;
57663;SDS011;43493;53.098;6.064;2023-01-26T04:07:13;54.70;;;23.70;;
57663;SDS011;43493;53.098;6.064;2023-01-26T04:09:57;51.92;;;23.10;;
57663;SDS011;43493;53.098;6.064;2023-01-26T04:12:23;50.93;;;22.97;;
57663;SDS011;43493;53.098;6.064;2023-01-26T04:14:49;59.93;;;24.70;;
57663;SDS011;43493;53.098;6.064;2023-01-26T04:17:33;54.75;;;23.15;;
57663;SDS011;43493;53.098;6.064;2023-01-26T04:20:18;54.80;;;22.95;;
57663;SDS011;43493;53.098;6.064;2023-01-26T04:23:02;53.10;;;22.75;;
57663;SDS011;43493;53.098;6.064;2023-01-26T04:25:27;58.30;;;23.63;;
57663;SDS011;43493;53.098;6.064;2023-01-26T04:27:53;52.10;;;23.03;;
57663;SDS011;43493;53.098;6.064;2023-01-26T04:30:19;51.30;;;22.50;;
57663;SDS011;43493;53.098;6.064;2023-01-26T04:32:45;49.63;;;23.00;;
57663;SDS011;43493;53.098;6.064;2023-01-26T04:35:11;53.57;;;22.97;;
57663;SDS011;43493;53.098;6.064;2023-01-26T04:37:37;62.58;;;23.73;;
57663;SDS011;43493;53.098;6.064;2023-01-26T04:40:04;59.08;;;23.48;;
57663;SDS011;43493;53.098;6.064;2023-01-26T04:42:30;52.33;;;24.17;;
57663;SDS011;43493;53.098;6.064;2023-01-26T04:44:56;57.97;;;24.73;;
57663;SDS011;43493;53.098;6.064;2023-01-26T04:47:22;64.43;;;27.77;;
57663;SDS011;43493;53.098;6.064;2023-01-26T04:49:48;63.63;;;26.73;;
57663;SDS011;43493;53.098;6.064;2023-01-26T04:52:13;62.70;;;26.67;;
57663;SDS011;43493;53.098;6.064;2023-01-26T04:54:39;66.13;;;24.58;;
57663;SDS011;43493;53.098;6.064;2023-01-26T04:57:06;58.75;;;23.38;;
57663;SDS011;43493;53.098;6.064;2023-01-26T04:59:32;62.90;;;27.67;;
57663;SDS011;43493;53.098;6.064;2023-01-26T05:01:58;64.53;;;25.20;;
57663;SDS011;43493;53.098;6.064;2023-01-26T05:04:24;52.77;;;24.27;;
57663;SDS011;43493;53.098;6.064;2023-01-26T05:06:50;71.67;;;28.03;;
57663;SDS011;43493;53.098;6.064;2023-01-26T05:09:15;64.47;;;26.43;;
57663;SDS011;43493;53.098;6.064;2023-01-26T05:11:41;67.30;;;27.77;;
57663;SDS011;43493;53.098;6.064;2023-01-26T05:14:07;69.83;;;27.00;;
57663;SDS011;43493;53.098;6.064;2023-01-26T05:16:32;63.87;;;26.87;;
57663;SDS011;43493;53.098;6.064;2023-01-26T05:18:58;58.37;;;25.80;;
57663;SDS011;43493;53.098;6.064;2023-01-26T05:21:24;57.57;;;24.33;;
57663;SDS011;43493;53.098;6.064;2023-01-26T05:23:51;61.22;;;25.92;;
57663;SDS011;43493;53.098;6.064;2023-01-26T05:26:17;56.28;;;23.92;;
57663;SDS011;43493;53.098;6.064;2023-01-26T05:28:43;53.07;;;23.43;;
57663;SDS011;43493;53.098;6.064;2023-01-26T05:31:09;63.83;;;26.33;;
57663;SDS011;43493;53.098;6.064;2023-01-26T05:33:34;72.80;;;25.47;;
57663;SDS011;43493;53.098;6.064;2023-01-26T05:36:04;52.00;;;22.90;;
57663;SDS011;43493;53.098;6.064;2023-01-26T05:38:32;67.82;;;23.00;;
57663;SDS011;43493;53.098;6.064;2023-01-26T05:40:58;61.33;;;20.60;;
57663;SDS011;43493;53.098;6.064;2023-01-26T05:43:24;52.63;;;21.17;;
57663;SDS011;43493;53.098;6.064;2023-01-26T05:45:49;52.63;;;21.20;;
57663;SDS011;43493;53.098;6.064;2023-01-26T05:48:15;55.23;;;20.00;;
57663;SDS011;43493;53.098;6.064;2023-01-26T05:50:41;52.42;;;20.92;;
57663;SDS011;43493;53.098;6.064;2023-01-26T05:53:07;57.87;;;20.47;;
57663;SDS011;43493;53.098;6.064;2023-01-26T05:55:32;53.40;;;19.07;;
57663;SDS011;43493;53.098;6.064;2023-01-26T05:57:59;45.17;;;18.70;;
57663;SDS011;43493;53.098;6.064;2023-01-26T06:00:25;52.70;;;18.53;;
57663;SDS011;43493;53.098;6.064;2023-01-26T06:02:50;52.40;;;14.93;;
57663;SDS011;43493;53.098;6.064;2023-01-26T06:05:16;47.40;;;14.97;;
57663;SDS011;43493;53.098;6.064;2023-01-26T06:07:42;37.37;;;14.00;;
57663;SDS011;43493;53.098;6.064;2023-01-26T06:10:08;47.93;;;11.90;;
57663;SDS011;43493;53.098;6.064;2023-01-26T06:12:34;53.53;;;8.75;;
57663;SDS011;43493;53.098;6.064;2023-01-26T06:15:02;51.47;;;9.15;;
57663;SDS011;43493;53.098;6.064;2023-01-26T06:17:29;53.17;;;8.48;;
57663;SDS011;43493;53.098;6.064;2023-01-26T06:19:55;57.57;;;7.63;;
57663;SDS011;43493;53.098;6.064;2023-01-26T06:22:20;55.30;;;7.80;;
57663;SDS011;43493;53.098;6.064;2023-01-26T06:24:46;52.40;;;5.97;;
57663;SDS011;43493;53.098;6.064;2023-01-26T06:27:13;45.67;;;6.00;;
57663;SDS011;43493;53.098;6.064;2023-01-26T06:29:39;46.13;;;6.13;;
57663;SDS011;43493;53.098;6.064;2023-01-26T06:32:06;39.45;;;5.57;;
57663;SDS011;43493;53.098;6.064;2023-01-26T06:34:36;56.15;;;5.75;;
57663;SDS011;43493;53.098;6.064;2023-01-26T06:37:02;53.87;;;5.97;;
57663;SDS011;43493;53.098;6.064;2023-01-26T06:39:27;47.33;;;5.53;;
57663;SDS011;43493;53.098;6.064;2023-01-26T06:41:53;44.37;;;5.40;;
57663;SDS011;43493;53.098;6.064;2023-01-26T06:44:19;45.13;;;6.10;;
57663;SDS011;43493;53.098;6.064;2023-01-26T06:46:44;47.77;;;5.43;;
57663;SDS011;43493;53.098;6.064;2023-01-26T06:49:10;51.93;;;5.30;;
57663;SDS011;43493;53.098;6.064;2023-01-26T06:51:38;47.97;;;6.13;;
57663;SDS011;43493;53.098;6.064;2023-01-26T06:54:08;57.67;;;5.57;;
57663;SDS011;43493;53.098;6.064;2023-01-26T06:56:34;55.08;;;5.93;;
57663;SDS011;43493;53.098;6.064;2023-01-26T06:59:00;53.90;;;6.00;;
57663;SDS011;43493;53.098;6.064;2023-01-26T07:01:26;51.47;;;6.10;;
57663;SDS011;43493;53.098;6.064;2023-01-26T07:03:53;49.63;;;5.88;;
57663;SDS011;43493;53.098;6.064;2023-01-26T07:06:19;50.03;;;7.05;;
57663;SDS011;43493;53.098;6.064;2023-01-26T07:08:45;54.53;;;5.88;;
57663;SDS011;43493;53.098;6.064;2023-01-26T07:11:11;44.88;;;6.07;;
57663;SDS011;43493;53.098;6.064;2023-01-26T07:13:38;41.35;;;5.43;;
57663;SDS011;43493;53.098;6.064;2023-01-26T07:16:05;49.38;;;5.28;;
57663;SDS011;43493;53.098;6.064;2023-01-26T07:18:33;46.88;;;5.70;;
57663;SDS011;43493;53.098;6.064;2023-01-26T07:21:02;61.60;;;6.35;;
57663;SDS011;43493;53.098;6.064;2023-01-26T07:23:29;51.08;;;6.05;;
57663;SDS011;43493;53.098;6.064;2023-01-26T07:25:55;62.87;;;6.37;;
57663;SDS011;43493;53.098;6.064;2023-01-26T07:28:21;51.53;;;6.67;;
57663;SDS011;43493;53.098;6.064;2023-01-26T07:30:47;55.40;;;6.85;;
57663;SDS011;43493;53.098;6.064;2023-01-26T07:33:13;43.17;;;5.80;;
57663;SDS011;43493;53.098;6.064;2023-01-26T07:35:39;52.85;;;6.20;;
57663;SDS011;43493;53.098;6.064;2023-01-26T07:38:05;56.23;;;5.57;;
57663;SDS011;43493;53.098;6.064;2023-01-26T07:40:31;53.38;;;5.88;;
57663;SDS011;43493;53.098;6.064;2023-01-26T07:42:59;63.33;;;6.78;;
57663;SDS011;43493;53.098;6.064;2023-01-26T07:45:25;52.05;;;6.32;;
57663;SDS011;43493;53.098;6.064;2023-01-26T07:47:54;60.25;;;6.78;;
57663;SDS011;43493;53.098;6.064;2023-01-26T07:50:21;53.80;;;7.20;;
57663;SDS011;43493;53.098;6.064;2023-01-26T07:52:47;52.50;;;6.60;;
57663;SDS011;43493;53.098;6.064;2023-01-26T07:55:13;51.83;;;6.30;;
57663;SDS011;43493;53.098;6.064;2023-01-26T07:57:39;48.23;;;6.00;;
57663;SDS011;43493;53.098;6.064;2023-01-26T08:00:05;52.10;;;5.82;;
57663;SDS011;43493;53.098;6.064;2023-01-26T08:02:32;39.75;;;5.57;;
57663;SDS011;43493;53.098;6.064;2023-01-26T08:04:57;52.87;;;5.83;;
57663;SDS011;43493;53.098;6.064;2023-01-26T08:07:24;47.22;;;5.75;;
57663;SDS011;43493;53.098;6.064;2023-01-26T08:09:50;51.25;;;5.43;;
57663;SDS011;43493;53.098;6.064;2023-01-26T08:12:16;46.37;;;6.27;;
57663;SDS011;43493;53.098;6.064;2023-01-26T08:14:42;42.60;;;5.20;;
57663;SDS011;43493;53.098;6.064;2023-01-26T08:17:07;44.67;;;5.07;;
57663;SDS011;43493;53.098;6.064;2023-01-26T08:19:33;37.20;;;4.50;;
57663;SDS011;43493;53.098;6.064;2023-01-26T08:21:59;40.23;;;6.23;;
57663;SDS011;43493;53.098;6.064;2023-01-26T08:24:24;46.43;;;5.27;;
57663;SDS011;43493;53.098;6.064;2023-01-26T08:26:52;51.08;;;5.47;;
57663;SDS011;43493;53.098;6.064;2023-01-26T08:29:18;47.70;;;5.70;;
57663;SDS011;43493;53.098;6.064;2023-01-26T08:31:45;41.92;;;7.65;;
57663;SDS011;43493;53.098;6.064;2023-01-26T08:34:10;39.73;;;5.30;;
57663;SDS011;43493;53.098;6.064;2023-01-26T08:36:37;43.45;;;6.35;;
57663;SDS011;43493;53.098;6.064;2023-01-26T08:39:03;56.28;;;6.72;;
57663;SDS011;43493;53.098;6.064;2023-01-26T08:41:29;53.30;;;9.40;;
57663;SDS011;43493;53.098;6.064;2023-01-26T08:43:57;53.08;;;10.05;;
57663;SDS011;43493;53.098;6.064;2023-01-26T08:46:23;63.08;;;9.27;;
57663;SDS011;43493;53.098;6.064;2023-01-26T08:48:50;53.20;;;9.45;;
57663;SDS011;43493;53.098;6.064;2023-01-26T08:51:16;48.05;;;8.45;;
57663;SDS011;43493;53.098;6.064;2023-01-26T08:53:41;43.33;;;7.60;;
57663;SDS011;43493;53.098;6.064;2023-01-26T08:56:08;54.10;;;7.17;;
57663;SDS011;43493;53.098;6.064;2023-01-26T08:58:36;41.03;;;6.45;;
57663;SDS011;43493;53.098;6.064;2023-01-26T09:01:06;49.28;;;6.47;;
57663;SDS011;43493;53.098;6.064;2023-01-26T09:03:34;41.78;;;5.38;;
57663;SDS011;43493;53.098;6.064;2023-01-26T09:06:00;51.00;;;6.60;;
57663;SDS011;43493;53.098;6.064;2023-01-26T09:08:28;42.80;;;5.57;;
57663;SDS011;43493;53.098;6.064;2023-01-26T09:10:54;46.45;;;5.43;;
57663;SDS011;43493;53.098;6.064;2023-01-26T09:13:20;47.63;;;6.35;;
57663;SDS011;43493;53.098;6.064;2023-01-26T09:15:46;43.47;;;6.33;;
57663;SDS011;43493;53.098;6.064;2023-01-26T09:18:12;55.47;;;6.20;;
57663;SDS011;43493;53.098;6.064;2023-01-26T09:20:37;45.00;;;6.00;;
57663;SDS011;43493;53.098;6.064;2023-01-26T09:23:04;40.15;;;5.05;;
57663;SDS011;43493;53.098;6.064;2023-01-26T09:25:29;38.37;;;5.00;;
57663;SDS011;43493;53.098;6.064;2023-01-26T09:27:55;40.57;;;5.50;;
57663;SDS011;43493;53.098;6.064;2023-01-26T09:30:21;40.13;;;7.10;;
57663;SDS011;43493;53.098;6.064;2023-01-26T09:32:49;43.65;;;5.75;;
57663;SDS011;43493;53.098;6.064;2023-01-26T09:35:15;38.35;;;5.38;;
57663;SDS011;43493;53.098;6.064;2023-01-26T09:37:44;42.42;;;5.28;;
57663;SDS011;43493;53.098;6.064;2023-01-26T09:40:22;36.65;;;5.20;;
57663;SDS011;43493;53.098;6.064;2023-01-26T09:45:35;44.38;;;6.07;;
57663;SDS011;43493;53.098;6.064;2023-01-26T09:48:16;42.25;;;5.20;;
57663;SDS011;43493;53.098;6.064;2023-01-26T09:51:00;37.17;;;4.68;;
57663;SDS011;43493;53.098;6.064;2023-01-26T09:53:44;39.55;;;5.13;;
57663;SDS011;43493;53.098;6.064;2023-01-26T09:56:17;40.33;;;5.78;;
57663;SDS011;43493;53.098;6.064;2023-01-26T09:58:52;37.88;;;4.97;;
57663;SDS011;43493;53.098;6.064;2023-01-26T10:01:29;42.78;;;5.80;;
57663;SDS011;43493;53.098;6.064;2023-01-26T10:04:17;32.90;;;5.40;;
57663;SDS011;43493;53.098;6.064;2023-01-26T10:07:04;34.55;;;5.00;;
57663;SDS011;43493;53.098;6.064;2023-01-26T10:09:35;33.08;;;5.32;;
57663;SDS011;43493;53.098;6.064;2023-01-26T10:12:48;42.88;;;5.75;;
57663;SDS011;43493;53.098;6.064;2023-01-26T10:14:56;35.25;;;4.85;;
57663;SDS011;43493;53.098;6.064;2023-01-26T10:17:34;36.78;;;4.65;;
57663;SDS011;43493;53.098;6.064;2023-01-26T10:23:06;40.95;;;5.32;;
57663;SDS011;43493;53.098;6.064;2023-01-26T10:25:40;44.08;;;5.80;;
57663;SDS011;43493;53.098;6.064;2023-01-26T10:28:12;32.20;;;4.80;;
57663;SDS011;43493;53.098;6.064;2023-01-26T10:30:39;34.03;;;4.70;;
57663;SDS011;43493;53.098;6.064;2023-01-26T10:35:41;34.65;;;4.82;;
57663;SDS011;43493;53.098;6.064;2023-01-26T10:40:51;38.50;;;4.78;;
57663;SDS011;43493;53.098;6.064;2023-01-26T10:43:17;29.57;;;4.00;;
57663;SDS011;43493;53.098;6.064;2023-01-26T10:45:44;33.23;;;5.17;;
57663;SDS011;43493;53.098;6.064;2023-01-26T10:48:23;24.25;;;4.05;;
57663;SDS011;43493;53.098;6.064;2023-01-26T10:50:51;30.02;;;4.00;;
57663;SDS011;43493;53.098;6.064;2023-01-26T10:53:27;34.20;;;4.35;;
57663;SDS011;43493;53.098;6.064;2023-01-26T10:55:56;29.92;;;4.28;;
57663;SDS011;43493;53.098;6.064;2023-01-26T11:03:36;21.25;;;3.90;;
57663;SDS011;43493;53.098;6.064;2023-01-26T11:06:13;25.98;;;4.10;;
57663;SDS011;43493;53.098;6.064;2023-01-26T11:08:41;23.60;;;3.35;;
57663;SDS011;43493;53.098;6.064;2023-01-26T11:11:22;20.65;;;3.40;;
57663;SDS011;43493;53.098;6.064;2023-01-26T11:14:08;20.80;;;3.15;;
57663;SDS011;43493;53.098;6.064;2023-01-26T11:16:44;19.10;;;2.80;;
57663;SDS011;43493;53.098;6.064;2023-01-26T11:19:18;21.83;;;3.38;;
57663;SDS011;43493;53.098;6.064;2023-01-26T11:22:14;20.08;;;2.90;;
57663;SDS011;43493;53.098;6.064;2023-01-26T11:24:55;22.38;;;3.45;;
57663;SDS011;43493;53.098;6.064;2023-01-26T11:27:33;24.52;;;3.10;;
57663;SDS011;43493;53.098;6.064;2023-01-26T11:30:16;19.23;;;2.58;;
57663;SDS011;43493;53.098;6.064;2023-01-26T11:36:02;14.00;;;2.85;;
57663;SDS011;43493;53.098;6.064;2023-01-26T11:38:40;15.68;;;2.58;;
57663;SDS011;43493;53.098;6.064;2023-01-26T11:49:43;28.98;;;3.53;;
57663;SDS011;43493;53.098;6.064;2023-01-26T12:00:42;26.23;;;4.88;;
57663;SDS011;43493;53.098;6.064;2023-01-26T12:03:20;30.35;;;4.53;;
57663;SDS011;43493;53.098;6.064;2023-01-26T12:05:51;23.52;;;4.13;;
57663;SDS011;43493;53.098;6.064;2023-01-26T12:11:11;20.45;;;4.05;;
57663;SDS011;43493;53.098;6.064;2023-01-26T12:19:11;18.67;;;2.85;;
57663;SDS011;43493;53.098;6.064;2023-01-26T12:21:53;16.73;;;3.03;;
57663;SDS011;43493;53.098;6.064;2023-01-26T12:24:33;19.40;;;2.47;;
57663;SDS011;43493;53.098;6.064;2023-01-26T12:27:04;19.77;;;3.40;;
57663;SDS011;43493;53.098;6.064;2023-01-26T12:29:46;18.48;;;2.97;;
57663;SDS011;43493;53.098;6.064;2023-01-26T12:32:18;19.58;;;2.72;;
57663;SDS011;43493;53.098;6.064;2023-01-26T12:34:46;21.45;;;3.38;;
57663;SDS011;43493;53.098;6.064;2023-01-26T12:37:29;18.15;;;3.13;;
57663;SDS011;43493;53.098;6.064;2023-01-26T12:42:37;19.92;;;3.33;;
57663;SDS011;43493;53.098;6.064;2023-01-26T12:45:14;17.40;;;3.13;;
57663;SDS011;43493;53.098;6.064;2023-01-26T12:47:49;16.85;;;2.97;;
57663;SDS011;43493;53.098;6.064;2023-01-26T12:50:28;25.48;;;3.35;;
57663;SDS011;43493;53.098;6.064;2023-01-26T12:53:47;21.65;;;3.85;;
57663;SDS011;43493;53.098;6.064;2023-01-26T12:58:33;17.92;;;2.70;;
57663;SDS011;43493;53.098;6.064;2023-01-26T13:01:04;19.87;;;2.77;;
57663;SDS011;43493;53.098;6.064;2023-01-26T13:03:38;19.85;;;3.92;;
57663;SDS011;43493;53.098;6.064;2023-01-26T13:27:59;13.95;;;3.22;;
57663;SDS011;43493;53.098;6.064;2023-01-26T13:30:42;17.63;;;3.63;;
57663;SDS011;43493;53.098;6.064;2023-01-26T13:33:12;15.48;;;3.38;;
57663;SDS011;43493;53.098;6.064;2023-01-26T13:35:47;22.97;;;3.70;;
57663;SDS011;43493;53.098;6.064;2023-01-26T13:41:08;12.77;;;2.97;;
57663;SDS011;43493;53.098;6.064;2023-01-26T13:48:51;11.70;;;2.60;;
57663;SDS011;43493;53.098;6.064;2023-01-26T13:51:28;16.55;;;3.10;;
57663;SDS011;43493;53.098;6.064;2023-01-26T13:54:12;18.77;;;3.43;;
57663;SDS011;43493;53.098;6.064;2023-01-26T13:56:39;15.83;;;2.67;;
57663;SDS011;43493;53.098;6.064;2023-01-26T13:59:08;15.97;;;3.03;;
57663;SDS011;43493;53.098;6.064;2023-01-26T14:01:49;13.52;;;2.58;;
57663;SDS011;43493;53.098;6.064;2023-01-26T14:04:23;20.38;;;3.00;;
57663;SDS011;43493;53.098;6.064;2023-01-26T14:07:01;22.47;;;3.63;;
57663;SDS011;43493;53.098;6.064;2023-01-26T14:09:36;17.48;;;3.10;;
57663;SDS011;43493;53.098;6.064;2023-01-26T14:14:40;23.40;;;3.38;;
57663;SDS011;43493;53.098;6.064;2023-01-26T14:17:31;10.93;;;2.28;;
57663;SDS011;43493;53.098;6.064;2023-01-26T14:20:01;19.50;;;2.90;;
57663;SDS011;43493;53.098;6.064;2023-01-26T14:22:40;13.30;;;2.42;;
57663;SDS011;43493;53.098;6.064;2023-01-26T14:25:08;18.53;;;3.17;;
57663;SDS011;43493;53.098;6.064;2023-01-26T14:27:35;19.30;;;3.77;;
57663;SDS011;43493;53.098;6.064;2023-01-26T14:30:51;15.55;;;2.70;;
57663;SDS011;43493;53.098;6.064;2023-01-26T14:33:03;18.20;;;2.73;;
57663;SDS011;43493;53.098;6.064;2023-01-26T14:35:37;17.30;;;2.27;;
57663;SDS011;43493;53.098;6.064;2023-01-26T14:38:13;16.37;;;3.03;;
57663;SDS011;43493;53.098;6.064;2023-01-26T14:40:58;13.10;;;2.50;;
57663;SDS011;43493;53.098;6.064;2023-01-26T14:43:25;20.85;;;2.78;;
57663;SDS011;43493;53.098;6.064;2023-01-26T14:48:24;16.93;;;2.60;;
57663;SDS011;43493;53.098;6.064;2023-01-26T14:50:56;20.10;;;2.83;;
57663;SDS011;43493;53.098;6.064;2023-01-26T14:53:23;20.55;;;3.55;;
57663;SDS011;43493;53.098;6.064;2023-01-26T14:55:50;22.67;;;4.32;;
57663;SDS011;43493;53.098;6.064;2023-01-26T15:00:53;20.15;;;3.22;;
57663;SDS011;43493;53.098;6.064;2023-01-26T15:03:24;16.20;;;2.70;;
57663;SDS011;43493;53.098;6.064;2023-01-26T15:06:03;21.70;;;3.33;;
57663;SDS011;43493;53.098;6.064;2023-01-26T15:08:29;18.85;;;2.92;;
57663;SDS011;43493;53.098;6.064;2023-01-26T15:10:56;24.50;;;3.60;;
57663;SDS011;43493;53.098;6.064;2023-01-26T15:13:43;19.65;;;3.33;;
57663;SDS011;43493;53.098;6.064;2023-01-26T15:16:17;21.65;;;3.58;;
57663;SDS011;43493;53.098;6.064;2023-01-26T15:18:44;25.03;;;4.00;;
57663;SDS011;43493;53.098;6.064;2023-01-26T15:21:18;19.90;;;2.92;;
57663;SDS011;43493;53.098;6.064;2023-01-26T15:23:49;18.07;;;2.97;;
57663;SDS011;43493;53.098;6.064;2023-01-26T15:29:05;17.05;;;3.00;;
57663;SDS011;43493;53.098;6.064;2023-01-26T15:31:49;20.08;;;3.90;;
57663;SDS011;43493;53.098;6.064;2023-01-26T15:34:36;20.45;;;3.60;;
57663;SDS011;43493;53.098;6.064;2023-01-26T15:37:23;18.00;;;3.80;;
57663;SDS011;43493;53.098;6.064;2023-01-26T15:39:52;17.52;;;3.50;;
57663;SDS011;43493;53.098;6.064;2023-01-26T15:42:22;18.03;;;3.40;;
57663;SDS011;43493;53.098;6.064;2023-01-26T15:44:51;19.23;;;3.38;;
57663;SDS011;43493;53.098;6.064;2023-01-26T15:47:17;23.40;;;4.00;;
57663;SDS011;43493;53.098;6.064;2023-01-26T15:49:43;21.17;;;2.37;;
57663;SDS011;43493;53.098;6.064;2023-01-26T15:52:12;20.00;;;3.47;;
57663;SDS011;43493;53.098;6.064;2023-01-26T15:54:54;18.30;;;3.42;;
57663;SDS011;43493;53.098;6.064;2023-01-26T15:57:20;21.47;;;4.03;;
57663;SDS011;43493;53.098;6.064;2023-01-26T15:59:45;26.77;;;4.33;;
57663;SDS011;43493;53.098;6.064;2023-01-26T16:02:12;25.13;;;3.73;;
57663;SDS011;43493;53.098;6.064;2023-01-26T16:04:39;23.00;;;3.63;;
57663;SDS011;43493;53.098;6.064;2023-01-26T16:07:12;19.60;;;3.90;;
57663;SDS011;43493;53.098;6.064;2023-01-26T16:09:39;20.65;;;4.03;;
57663;SDS011;43493;53.098;6.064;2023-01-26T16:12:07;16.77;;;2.90;;
57663;SDS011;43493;53.098;6.064;2023-01-26T16:14:38;23.17;;;2.72;;
57663;SDS011;43493;53.098;6.064;2023-01-26T16:17:11;24.37;;;3.60;;
57663;SDS011;43493;53.098;6.064;2023-01-26T16:19:39;23.08;;;4.07;;